aviador You're here:

KLDJ Decoded Metar

in _UNIDENTIFIED
Report Time2017-12-15 13:55:00
UTC Time2017-12-15 14:07:44
Flight Rules vfr VFR
WindCalm
Visibility9999 m
Phenomena:N/A
Clouds:N/A
Expected CloudBase > 3,200 ft AGL from Temp-Dew spread
CeilingNone
Temp-5°C (ISA -20)
Dew Point-13°C (54% RH)
AAT-8.2°C
QNH1020 hPa
Density Alt-2,651 ft
Elevation23 ft
Report Wrong Elevation
Raw Report
KLDJ 151355Z AUTO 00000KT 10SM CLR M05/M13 A3013 RMK AO2
T10551133=

Extra information for KLDJ:More info

Metar Taf Metar & Taf Last 4 Metars F.Rules Stats Wind Profile Meteogram Temp Stats Metar ALERT Operation Metar Decoded Social comments